sensor_id;sensor_type;location;lat;lon;timestamp;pressure;altitude;pressure_sealevel;temperature;humidity
10948;BME280;5526;42.070;24.752;2023-03-01T00:00:18;99732.09;;;7.15;100.00
10948;BME280;5526;42.070;24.752;2023-03-01T00:02:45;99735.72;;;7.14;100.00
10948;BME280;5526;42.070;24.752;2023-03-01T00:05:12;99730.66;;;7.19;100.00
10948;BME280;5526;42.070;24.752;2023-03-01T00:07:39;99743.31;;;7.22;100.00
10948;BME280;5526;42.070;24.752;2023-03-01T00:10:06;99735.47;;;7.22;100.00
10948;BME280;5526;42.070;24.752;2023-03-01T00:12:35;99727.47;;;7.11;100.00
10948;BME280;5526;42.070;24.752;2023-03-01T00:15:03;99716.47;;;7.02;100.00
10948;BME280;5526;42.070;24.752;2023-03-01T00:17:30;99734.56;;;7.10;100.00
10948;BME280;5526;42.070;24.752;2023-03-01T00:19:57;99729.69;;;7.14;100.00
10948;BME280;5526;42.070;24.752;2023-03-01T00:22:26;99734.28;;;7.18;100.00
10948;BME280;5526;42.070;24.752;2023-03-01T00:24:54;99725.88;;;7.10;100.00
10948;BME280;5526;42.070;24.752;2023-03-01T00:27:21;99731.28;;;7.15;100.00
10948;BME280;5526;42.070;24.752;2023-03-01T00:29:49;99730.84;;;7.18;100.00
10948;BME280;5526;42.070;24.752;2023-03-01T00:32:16;99727.06;;;7.14;100.00
10948;BME280;5526;42.070;24.752;2023-03-01T00:34:43;99724.50;;;7.07;100.00
10948;BME280;5526;42.070;24.752;2023-03-01T00:37:19;99722.25;;;7.11;100.00
10948;BME280;5526;42.070;24.752;2023-03-01T00:39:46;99723.47;;;7.08;100.00
10948;BME280;5526;42.070;24.752;2023-03-01T00:42:13;99722.03;;;7.12;100.00
10948;BME280;5526;42.070;24.752;2023-03-01T00:44:40;99715.22;;;7.11;100.00
10948;BME280;5526;42.070;24.752;2023-03-01T00:47:09;99713.78;;;7.15;100.00
10948;BME280;5526;42.070;24.752;2023-03-01T00:49:36;99706.34;;;7.12;100.00
10948;BME280;5526;42.070;24.752;2023-03-01T00:52:03;99705.75;;;7.10;100.00
10948;BME280;5526;42.070;24.752;2023-03-01T00:54:30;99698.34;;;7.07;100.00
10948;BME280;5526;42.070;24.752;2023-03-01T00:56:57;99701.00;;;7.01;100.00
10948;BME280;5526;42.070;24.752;2023-03-01T00:59:24;99691.94;;;7.03;100.00
10948;BME280;5526;42.070;24.752;2023-03-01T01:01:51;99685.88;;;7.03;100.00
10948;BME280;5526;42.070;24.752;2023-03-01T01:04:19;99690.16;;;6.97;100.00
10948;BME280;5526;42.070;24.752;2023-03-01T01:06:46;99698.53;;;7.06;100.00
10948;BME280;5526;42.070;24.752;2023-03-01T01:09:16;99693.72;;;7.03;100.00
10948;BME280;5526;42.070;24.752;2023-03-01T01:11:44;99693.94;;;7.01;100.00
10948;BME280;5526;42.070;24.752;2023-03-01T01:14:11;99684.44;;;7.07;100.00
10948;BME280;5526;42.070;24.752;2023-03-01T01:16:38;99682.56;;;7.14;100.00
10948;BME280;5526;42.070;24.752;2023-03-01T01:19:05;99686.63;;;7.10;100.00
10948;BME280;5526;42.070;24.752;2023-03-01T01:21:34;99692.34;;;7.00;100.00
10948;BME280;5526;42.070;24.752;2023-03-01T01:24:02;99692.44;;;7.12;100.00
10948;BME280;5526;42.070;24.752;2023-03-01T01:26:32;99681.97;;;7.12;100.00
10948;BME280;5526;42.070;24.752;2023-03-01T01:29:02;99683.38;;;7.14;100.00
10948;BME280;5526;42.070;24.752;2023-03-01T01:31:30;99682.78;;;7.12;100.00
10948;BME280;5526;42.070;24.752;2023-03-01T01:33:58;99670.88;;;7.16;100.00
10948;BME280;5526;42.070;24.752;2023-03-01T01:36:26;99676.25;;;7.21;100.00
10948;BME280;5526;42.070;24.752;2023-03-01T01:38:54;99672.25;;;7.19;100.00
10948;BME280;5526;42.070;24.752;2023-03-01T01:41:22;99673.41;;;7.05;100.00
10948;BME280;5526;42.070;24.752;2023-03-01T01:44:11;99683.53;;;7.19;100.00
10948;BME280;5526;42.070;24.752;2023-03-01T01:46:41;99687.16;;;7.18;100.00
10948;BME280;5526;42.070;24.752;2023-03-01T01:49:17;99681.28;;;7.23;100.00
10948;BME280;5526;42.070;24.752;2023-03-01T01:51:49;99673.84;;;7.20;100.00
10948;BME280;5526;42.070;24.752;2023-03-01T01:54:19;99666.94;;;7.07;100.00
10948;BME280;5526;42.070;24.752;2023-03-01T01:56:51;99665.09;;;7.08;100.00
10948;BME280;5526;42.070;24.752;2023-03-01T01:59:19;99668.78;;;7.00;100.00
10948;BME280;5526;42.070;24.752;2023-03-01T02:01:49;99667.56;;;7.03;100.00
10948;BME280;5526;42.070;24.752;2023-03-01T02:04:17;99669.81;;;6.99;100.00
10948;BME280;5526;42.070;24.752;2023-03-01T02:06:47;99660.78;;;6.95;100.00
10948;BME280;5526;42.070;24.752;2023-03-01T02:09:19;99664.41;;;6.94;100.00
10948;BME280;5526;42.070;24.752;2023-03-01T02:11:47;99659.97;;;6.95;100.00
10948;BME280;5526;42.070;24.752;2023-03-01T02:14:16;99665.41;;;6.93;100.00
10948;BME280;5526;42.070;24.752;2023-03-01T02:16:43;99666.03;;;6.95;100.00
10948;BME280;5526;42.070;24.752;2023-03-01T02:19:15;99667.81;;;6.95;100.00
10948;BME280;5526;42.070;24.752;2023-03-01T02:21:50;99666.22;;;6.94;100.00
10948;BME280;5526;42.070;24.752;2023-03-01T02:24:29;99668.16;;;6.80;100.00
10948;BME280;5526;42.070;24.752;2023-03-01T02:27:00;99664.09;;;6.84;100.00
10948;BME280;5526;42.070;24.752;2023-03-01T02:29:29;99660.50;;;6.79;100.00
10948;BME280;5526;42.070;24.752;2023-03-01T02:31:58;99667.94;;;6.82;100.00
10948;BME280;5526;42.070;24.752;2023-03-01T02:34:26;99659.06;;;6.83;100.00
10948;BME280;5526;42.070;24.752;2023-03-01T02:36:57;99664.25;;;6.89;100.00
10948;BME280;5526;42.070;24.752;2023-03-01T02:39:28;99665.13;;;6.83;100.00
10948;BME280;5526;42.070;24.752;2023-03-01T02:41:57;99669.91;;;6.86;100.00
10948;BME280;5526;42.070;24.752;2023-03-01T02:44:25;99654.84;;;6.82;100.00
10948;BME280;5526;42.070;24.752;2023-03-01T02:46:56;99660.88;;;6.82;100.00
10948;BME280;5526;42.070;24.752;2023-03-01T02:49:25;99649.06;;;6.73;100.00
10948;BME280;5526;42.070;24.752;2023-03-01T02:52:07;99656.09;;;6.79;100.00
10948;BME280;5526;42.070;24.752;2023-03-01T02:54:42;99662.53;;;6.77;100.00
10948;BME280;5526;42.070;24.752;2023-03-01T02:57:13;99658.03;;;6.84;100.00
10948;BME280;5526;42.070;24.752;2023-03-01T02:59:41;99651.84;;;6.78;100.00
10948;BME280;5526;42.070;24.752;2023-03-01T03:02:20;99648.72;;;6.70;100.00
10948;BME280;5526;42.070;24.752;2023-03-01T03:05:03;99662.31;;;6.78;100.00
10948;BME280;5526;42.070;24.752;2023-03-01T03:07:32;99662.31;;;6.78;100.00
10948;BME280;5526;42.070;24.752;2023-03-01T03:10:00;99669.19;;;6.73;100.00
10948;BME280;5526;42.070;24.752;2023-03-01T03:12:26;99655.38;;;6.66;100.00
10948;BME280;5526;42.070;24.752;2023-03-01T03:14:53;99651.13;;;6.65;100.00
10948;BME280;5526;42.070;24.752;2023-03-01T03:17:22;99651.91;;;6.72;100.00
10948;BME280;5526;42.070;24.752;2023-03-01T03:19:49;99646.09;;;6.70;100.00
10948;BME280;5526;42.070;24.752;2023-03-01T03:22:17;99645.19;;;6.58;100.00
10948;BME280;5526;42.070;24.752;2023-03-01T03:24:44;99653.13;;;6.69;100.00
10948;BME280;5526;42.070;24.752;2023-03-01T03:27:11;99653.94;;;6.70;100.00
10948;BME280;5526;42.070;24.752;2023-03-01T03:29:38;99658.00;;;6.66;100.00
10948;BME280;5526;42.070;24.752;2023-03-01T03:32:05;99659.59;;;6.67;100.00
10948;BME280;5526;42.070;24.752;2023-03-01T03:34:34;99655.75;;;6.69;100.00
10948;BME280;5526;42.070;24.752;2023-03-01T03:37:01;99654.00;;;6.63;100.00
10948;BME280;5526;42.070;24.752;2023-03-01T03:39:28;99654.00;;;6.63;100.00
10948;BME280;5526;42.070;24.752;2023-03-01T03:42:01;99650.34;;;6.64;100.00
10948;BME280;5526;42.070;24.752;2023-03-01T03:44:49;99643.91;;;6.67;100.00
10948;BME280;5526;42.070;24.752;2023-03-01T03:47:51;99636.25;;;6.65;100.00
10948;BME280;5526;42.070;24.752;2023-03-01T03:50:20;99639.47;;;6.67;100.00
10948;BME280;5526;42.070;24.752;2023-03-01T03:52:47;99639.72;;;6.59;100.00
10948;BME280;5526;42.070;24.752;2023-03-01T03:55:14;99647.94;;;6.63;100.00
10948;BME280;5526;42.070;24.752;2023-03-01T03:58:03;99650.09;;;6.72;100.00
10948;BME280;5526;42.070;24.752;2023-03-01T04:00:33;99658.97;;;6.71;100.00
10948;BME280;5526;42.070;24.752;2023-03-01T04:03:00;99642.50;;;6.64;100.00
10948;BME280;5526;42.070;24.752;2023-03-01T04:05:29;99642.25;;;6.72;100.00
10948;BME280;5526;42.070;24.752;2023-03-01T04:07:57;99636.00;;;6.73;100.00
10948;BME280;5526;42.070;24.752;2023-03-01T04:10:34;99644.88;;;6.72;100.00
10948;BME280;5526;42.070;24.752;2023-03-01T04:13:02;99647.06;;;6.75;100.00
10948;BME280;5526;42.070;24.752;2023-03-01T04:15:32;99647.44;;;6.79;100.00
10948;BME280;5526;42.070;24.752;2023-03-01T04:18:00;99648.91;;;6.68;100.00
10948;BME280;5526;42.070;24.752;2023-03-01T04:20:31;99657.94;;;6.72;100.00
10948;BME280;5526;42.070;24.752;2023-03-01T04:23:02;99651.75;;;6.67;100.00
10948;BME280;5526;42.070;24.752;2023-03-01T04:25:37;99649.53;;;6.64;100.00
10948;BME280;5526;42.070;24.752;2023-03-01T04:28:05;99650.88;;;6.73;100.00
10948;BME280;5526;42.070;24.752;2023-03-01T04:30:32;99653.91;;;6.76;100.00
10948;BME280;5526;42.070;24.752;2023-03-01T04:33:02;99652.06;;;6.77;100.00
10948;BME280;5526;42.070;24.752;2023-03-01T04:35:31;99653.72;;;6.71;100.00
10948;BME280;5526;42.070;24.752;2023-03-01T04:38:00;99663.59;;;6.69;100.00
10948;BME280;5526;42.070;24.752;2023-03-01T04:40:27;99655.47;;;6.77;100.00
10948;BME280;5526;42.070;24.752;2023-03-01T04:42:54;99659.91;;;6.77;100.00
10948;BME280;5526;42.070;24.752;2023-03-01T04:45:21;99653.47;;;6.79;100.00
10948;BME280;5526;42.070;24.752;2023-03-01T04:47:48;99660.31;;;6.80;100.00
10948;BME280;5526;42.070;24.752;2023-03-01T04:50:18;99662.28;;;6.85;100.00
10948;BME280;5526;42.070;24.752;2023-03-01T04:52:48;99659.66;;;6.85;100.00
10948;BME280;5526;42.070;24.752;2023-03-01T04:55:16;99655.53;;;6.71;100.00
10948;BME280;5526;42.070;24.752;2023-03-01T04:57:43;99654.47;;;6.78;100.00
10948;BME280;5526;42.070;24.752;2023-03-01T05:00:11;99660.50;;;6.79;100.00
10948;BME280;5526;42.070;24.752;2023-03-01T05:02:50;99648.41;;;6.84;100.00
10948;BME280;5526;42.070;24.752;2023-03-01T05:05:25;99648.97;;;6.86;100.00
10948;BME280;5526;42.070;24.752;2023-03-01T05:07:58;99649.22;;;6.78;100.00
10948;BME280;5526;42.070;24.752;2023-03-01T05:10:27;99654.47;;;6.78;100.00
10948;BME280;5526;42.070;24.752;2023-03-01T05:12:56;99649.44;;;6.77;100.00
10948;BME280;5526;42.070;24.752;2023-03-01T05:15:24;99653.50;;;6.73;100.00
10948;BME280;5526;42.070;24.752;2023-03-01T05:17:52;99652.66;;;6.79;100.00
10948;BME280;5526;42.070;24.752;2023-03-01T05:20:20;99658.19;;;6.64;100.00
10948;BME280;5526;42.070;24.752;2023-03-01T05:22:49;99660.41;;;6.67;100.00
10948;BME280;5526;42.070;24.752;2023-03-01T05:25:18;99654.94;;;6.69;100.00
10948;BME280;5526;42.070;24.752;2023-03-01T05:27:46;99652.09;;;6.70;100.00
10948;BME280;5526;42.070;24.752;2023-03-01T05:30:14;99653.13;;;6.69;100.00
10948;BME280;5526;42.070;24.752;2023-03-01T05:32:43;99658.00;;;6.59;100.00
10948;BME280;5526;42.070;24.752;2023-03-01T05:35:11;99658.41;;;6.63;100.00
10948;BME280;5526;42.070;24.752;2023-03-01T05:37:41;99657.59;;;6.62;100.00
10948;BME280;5526;42.070;24.752;2023-03-01T05:40:10;99660.44;;;6.61;100.00
10948;BME280;5526;42.070;24.752;2023-03-01T05:42:46;99660.22;;;6.62;100.00
10948;BME280;5526;42.070;24.752;2023-03-01T05:45:14;99664.06;;;6.60;100.00
10948;BME280;5526;42.070;24.752;2023-03-01T05:47:43;99661.28;;;6.55;100.00
10948;BME280;5526;42.070;24.752;2023-03-01T05:50:12;99668.47;;;6.59;100.00
10948;BME280;5526;42.070;24.752;2023-03-01T05:52:39;99679.69;;;6.66;100.00
10948;BME280;5526;42.070;24.752;2023-03-01T05:55:07;99685.75;;;6.67;100.00
10948;BME280;5526;42.070;24.752;2023-03-01T05:57:34;99684.50;;;6.69;100.00
10948;BME280;5526;42.070;24.752;2023-03-01T06:00:03;99687.91;;;6.76;100.00
10948;BME280;5526;42.070;24.752;2023-03-01T06:02:31;99690.31;;;6.78;100.00
10948;BME280;5526;42.070;24.752;2023-03-01T06:04:58;99693.91;;;6.77;100.00
10948;BME280;5526;42.070;24.752;2023-03-01T06:07:26;99698.31;;;6.83;100.00
10948;BME280;5526;42.070;24.752;2023-03-01T06:09:52;99692.06;;;6.84;100.00
10948;BME280;5526;42.070;24.752;2023-03-01T06:12:19;99695.69;;;6.83;100.00
10948;BME280;5526;42.070;24.752;2023-03-01T06:14:46;99696.88;;;6.87;100.00
10948;BME280;5526;42.070;24.752;2023-03-01T06:17:15;99695.69;;;6.83;100.00
10948;BME280;5526;42.070;24.752;2023-03-01T06:19:42;99695.31;;;6.79;100.00
10948;BME280;5526;42.070;24.752;2023-03-01T06:22:09;99696.72;;;6.82;100.00
10948;BME280;5526;42.070;24.752;2023-03-01T06:24:36;99694.84;;;6.89;100.00
10948;BME280;5526;42.070;24.752;2023-03-01T06:27:03;99691.59;;;6.93;100.00
10948;BME280;5526;42.070;24.752;2023-03-01T06:29:30;99696.25;;;6.91;100.00
10948;BME280;5526;42.070;24.752;2023-03-01T06:31:57;99695.38;;;6.97;100.00
10948;BME280;5526;42.070;24.752;2023-03-01T06:34:26;99699.00;;;6.96;100.00
10948;BME280;5526;42.070;24.752;2023-03-01T06:36:53;99693.72;;;7.03;100.00
10948;BME280;5526;42.070;24.752;2023-03-01T06:39:20;99689.94;;;6.99;100.00
10948;BME280;5526;42.070;24.752;2023-03-01T06:41:47;99702.53;;;7.08;100.00
10948;BME280;5526;42.070;24.752;2023-03-01T06:44:14;99696.88;;;7.11;100.00
10948;BME280;5526;42.070;24.752;2023-03-01T06:46:41;99701.25;;;7.17;100.00
10948;BME280;5526;42.070;24.752;2023-03-01T06:49:08;99692.56;;;7.23;100.00
10948;BME280;5526;42.070;24.752;2023-03-01T06:51:37;99701.84;;;7.19;100.00
10948;BME280;5526;42.070;24.752;2023-03-01T06:54:04;99695.53;;;7.27;100.00
10948;BME280;5526;42.070;24.752;2023-03-01T06:56:31;99698.16;;;7.27;100.00
10948;BME280;5526;42.070;24.752;2023-03-01T06:58:59;99693.09;;;7.32;100.00
10948;BME280;5526;42.070;24.752;2023-03-01T07:01:26;99702.97;;;7.30;100.00
10948;BME280;5526;42.070;24.752;2023-03-01T07:03:53;99701.38;;;7.29;100.00
10948;BME280;5526;42.070;24.752;2023-03-01T07:06:20;99682.66;;;7.25;100.00
10948;BME280;5526;42.070;24.752;2023-03-01T07:08:48;99694.84;;;7.38;100.00
10948;BME280;5526;42.070;24.752;2023-03-01T07:11:16;99696.22;;;7.40;100.00
10948;BME280;5526;42.070;24.752;2023-03-01T07:13:43;99698.34;;;7.50;100.00
10948;BME280;5526;42.070;24.752;2023-03-01T07:16:10;99703.97;;;7.53;100.00
10948;BME280;5526;42.070;24.752;2023-03-01T07:18:37;99704.03;;;7.65;100.00
10948;BME280;5526;42.070;24.752;2023-03-01T07:21:05;99705.84;;;7.64;100.00
10948;BME280;5526;42.070;24.752;2023-03-01T07:23:32;99708.03;;;7.67;100.00
10948;BME280;5526;42.070;24.752;2023-03-01T07:26:01;99700.78;;;7.69;100.00
10948;BME280;5526;42.070;24.752;2023-03-01T07:28:28;99699.44;;;7.60;100.00
10948;BME280;5526;42.070;24.752;2023-03-01T07:31:00;99685.91;;;7.63;100.00
10948;BME280;5526;42.070;24.752;2023-03-01T07:33:27;99696.50;;;7.75;100.00
10948;BME280;5526;42.070;24.752;2023-03-01T07:35:57;99676.84;;;7.84;100.00
10948;BME280;5526;42.070;24.752;2023-03-01T07:38:25;99673.06;;;7.80;100.00
10948;BME280;5526;42.070;24.752;2023-03-01T07:40:52;99683.25;;;7.88;100.00
10948;BME280;5526;42.070;24.752;2023-03-01T07:43:21;99680.53;;;7.94;100.00
10948;BME280;5526;42.070;24.752;2023-03-01T07:45:47;99682.72;;;7.97;100.00
10948;BME280;5526;42.070;24.752;2023-03-01T07:48:15;99678.56;;;8.08;100.00
10948;BME280;5526;42.070;24.752;2023-03-01T07:50:42;99675.00;;;8.20;100.00
10948;BME280;5526;42.070;24.752;2023-03-01T07:53:09;99680.59;;;8.24;100.00
10948;BME280;5526;42.070;24.752;2023-03-01T07:55:36;99677.56;;;8.27;100.00
10948;BME280;5526;42.070;24.752;2023-03-01T07:58:03;99685.91;;;8.35;100.00
10948;BME280;5526;42.070;24.752;2023-03-01T08:00:31;99671.81;;;8.48;100.00
10948;BME280;5526;42.070;24.752;2023-03-01T08:02:59;99677.28;;;8.46;100.00
10948;BME280;5526;42.070;24.752;2023-03-01T08:05:27;99683.53;;;8.45;100.00
10948;BME280;5526;42.070;24.752;2023-03-01T08:07:54;99674.25;;;8.31;100.00
10948;BME280;5526;42.070;24.752;2023-03-01T08:10:21;99683.28;;;8.35;100.00
10948;BME280;5526;42.070;24.752;2023-03-01T08:12:48;99679.22;;;8.39;100.00
10948;BME280;5526;42.070;24.752;2023-03-01T08:15:17;99682.41;;;8.41;100.00
10948;BME280;5526;42.070;24.752;2023-03-01T08:17:46;99685.13;;;8.46;100.00
10948;BME280;5526;42.070;24.752;2023-03-01T08:20:15;99685.09;;;9.17;100.00
10948;BME280;5526;42.070;24.752;2023-03-01T08:22:42;99686.97;;;8.75;100.00
10948;BME280;5526;42.070;24.752;2023-03-01T08:25:09;99682.25;;;8.66;100.00
10948;BME280;5526;42.070;24.752;2023-03-01T08:27:36;99680.28;;;9.03;100.00
10948;BME280;5526;42.070;24.752;2023-03-01T08:30:04;99680.28;;;8.61;100.00
10948;BME280;5526;42.070;24.752;2023-03-01T08:32:35;99688.06;;;9.44;100.00
10948;BME280;5526;42.070;24.752;2023-03-01T08:35:05;99676.38;;;8.93;100.00
10948;BME280;5526;42.070;24.752;2023-03-01T08:37:32;99670.94;;;8.65;100.00
10948;BME280;5526;42.070;24.752;2023-03-01T08:40:00;99646.06;;;8.56;100.00
10948;BME280;5526;42.070;24.752;2023-03-01T08:42:27;99686.13;;;8.63;100.00
10948;BME280;5526;42.070;24.752;2023-03-01T08:44:54;99681.41;;;8.54;100.00
10948;BME280;5526;42.070;24.752;2023-03-01T08:47:22;99683.16;;;9.47;100.00
10948;BME280;5526;42.070;24.752;2023-03-01T08:49:49;99677.72;;;8.84;100.00
10948;BME280;5526;42.070;24.752;2023-03-01T08:52:18;99666.03;;;8.57;100.00
10948;BME280;5526;42.070;24.752;2023-03-01T08:54:47;99682.28;;;8.48;100.00
10948;BME280;5526;42.070;24.752;2023-03-01T08:57:14;99678.66;;;8.49;100.00
10948;BME280;5526;42.070;24.752;2023-03-01T08:59:41;99668.16;;;8.49;100.00
10948;BME280;5526;42.070;24.752;2023-03-01T09:02:12;99671.69;;;8.43;100.00
10948;BME280;5526;42.070;24.752;2023-03-01T09:04:39;99682.19;;;8.54;100.00
10948;BME280;5526;42.070;24.752;2023-03-01T09:07:07;99684.97;;;8.59;100.00
10948;BME280;5526;42.070;24.752;2023-03-01T09:09:35;99673.22;;;8.62;100.00
10948;BME280;5526;42.070;24.752;2023-03-01T09:12:03;99684.25;;;8.52;100.00
10948;BME280;5526;42.070;24.752;2023-03-01T09:14:30;99690.84;;;8.73;100.00
10948;BME280;5526;42.070;24.752;2023-03-01T09:16:57;99680.28;;;8.61;100.00
10948;BME280;5526;42.070;24.752;2023-03-01T09:19:28;99679.94;;;8.58;100.00
10948;BME280;5526;42.070;24.752;2023-03-01T09:21:55;99686.13;;;8.63;100.00
10948;BME280;5526;42.070;24.752;2023-03-01T09:24:24;99680.59;;;8.53;100.00
10948;BME280;5526;42.070;24.752;2023-03-01T09:26:54;99688.97;;;8.62;100.00
10948;BME280;5526;42.070;24.752;2023-03-01T09:29:22;99674.47;;;8.59;100.00
10948;BME280;5526;42.070;24.752;2023-03-01T09:31:49;99678.59;;;8.67;100.00
10948;BME280;5526;42.070;24.752;2023-03-01T09:34:16;99673.31;;;9.08;100.00
10948;BME280;5526;42.070;24.752;2023-03-01T09:36:48;99674.88;;;8.98;100.00
10948;BME280;5526;42.070;24.752;2023-03-01T09:39:16;99680.88;;;8.63;100.00
10948;BME280;5526;42.070;24.752;2023-03-01T09:41:50;99675.78;;;8.80;100.00
10948;BME280;5526;42.070;24.752;2023-03-01T09:44:27;99675.88;;;8.73;100.00
10948;BME280;5526;42.070;24.752;2023-03-01T09:46:57;99675.00;;;8.79;100.00
10948;BME280;5526;42.070;24.752;2023-03-01T09:49:26;99663.91;;;8.77;100.00
10948;BME280;5526;42.070;24.752;2023-03-01T09:51:59;99669.84;;;8.84;100.00
10948;BME280;5526;42.070;24.752;2023-03-01T09:54:27;99665.97;;;8.75;100.00
10948;BME280;5526;42.070;24.752;2023-03-01T09:57:05;99663.44;;;8.69;100.00
10948;BME280;5526;42.070;24.752;2023-03-01T09:59:43;99659.56;;;8.71;100.00
10948;BME280;5526;42.070;24.752;2023-03-01T10:02:27;99663.28;;;8.52;100.00
10948;BME280;5526;42.070;24.752;2023-03-01T10:05:03;99654.88;;;8.62;100.00
10948;BME280;5526;42.070;24.752;2023-03-01T10:07:40;99654.81;;;8.50;100.00
10948;BME280;5526;42.070;24.752;2023-03-01T10:10:25;99652.81;;;8.64;100.00
10948;BME280;5526;42.070;24.752;2023-03-01T10:12:53;99657.84;;;8.65;100.00
10948;BME280;5526;42.070;24.752;2023-03-01T10:15:34;99625.06;;;8.56;100.00
10948;BME280;5526;42.070;24.752;2023-03-01T10:18:06;99661.41;;;8.82;100.00
10948;BME280;5526;42.070;24.752;2023-03-01T10:20:43;99653.06;;;8.85;100.00
10948;BME280;5526;42.070;24.752;2023-03-01T10:23:13;99651.59;;;8.78;100.00
10948;BME280;5526;42.070;24.752;2023-03-01T10:25:50;99643.81;;;8.71;100.00
10948;BME280;5526;42.070;24.752;2023-03-01T10:28:25;99648.94;;;8.66;100.00
10948;BME280;5526;42.070;24.752;2023-03-01T10:30:53;99642.53;;;8.62;100.00
10948;BME280;5526;42.070;24.752;2023-03-01T10:33:23;99629.88;;;8.59;100.00
10948;BME280;5526;42.070;24.752;2023-03-01T10:35:51;99647.78;;;8.62;100.00
10948;BME280;5526;42.070;24.752;2023-03-01T10:38:19;99641.66;;;8.68;100.00
10948;BME280;5526;42.070;24.752;2023-03-01T10:40:52;99645.63;;;8.71;100.00
10948;BME280;5526;42.070;24.752;2023-03-01T10:43:20;99647.34;;;8.65;100.00
10948;BME280;5526;42.070;24.752;2023-03-01T10:45:48;99645.53;;;8.77;100.00
10948;BME280;5526;42.070;24.752;2023-03-01T10:48:18;99639.84;;;8.69;100.00
10948;BME280;5526;42.070;24.752;2023-03-01T10:50:50;99634.97;;;8.43;100.00
10948;BME280;5526;42.070;24.752;2023-03-01T10:53:23;99625.31;;;8.25;100.00
10948;BME280;5526;42.070;24.752;2023-03-01T10:56:00;99638.22;;;8.27;100.00
10948;BME280;5526;42.070;24.752;2023-03-01T10:58:29;99630.22;;;8.22;100.00
10948;BME280;5526;42.070;24.752;2023-03-01T11:00:58;99635.19;;;8.41;100.00
10948;BME280;5526;42.070;24.752;2023-03-01T11:03:29;99617.25;;;8.38;100.00
10948;BME280;5526;42.070;24.752;2023-03-01T11:06:00;99616.56;;;8.31;100.00
10948;BME280;5526;42.070;24.752;2023-03-01T11:08:39;99613.94;;;8.31;100.00
10948;BME280;5526;42.070;24.752;2023-03-01T11:11:15;99604.19;;;8.20;100.00
10948;BME280;5526;42.070;24.752;2023-03-01T11:13:50;99596.78;;;8.17;100.00
10948;BME280;5526;42.070;24.752;2023-03-01T11:16:24;99601.38;;;8.22;100.00
10948;BME280;5526;42.070;24.752;2023-03-01T11:19:04;99588.41;;;8.09;100.00
10948;BME280;5526;42.070;24.752;2023-03-01T11:21:42;99589.56;;;8.13;100.00
10948;BME280;5526;42.070;24.752;2023-03-01T11:24:14;99589.88;;;8.75;100.00
10948;BME280;5526;42.070;24.752;2023-03-01T11:26:45;99594.19;;;8.81;100.00
10948;BME280;5526;42.070;24.752;2023-03-01T11:29:21;99594.88;;;9.35;100.00
10948;BME280;5526;42.070;24.752;2023-03-01T11:31:53;99583.94;;;8.92;100.00
10948;BME280;5526;42.070;24.752;2023-03-01T11:34:32;99564.84;;;9.31;100.00
10948;BME280;5526;42.070;24.752;2023-03-01T11:37:07;99572.84;;;8.89;100.00
10948;BME280;5526;42.070;24.752;2023-03-01T11:39:39;99560.41;;;8.73;100.00
10948;BME280;5526;42.070;24.752;2023-03-01T11:42:13;99562.22;;;8.61;100.00
10948;BME280;5526;42.070;24.752;2023-03-01T11:44:43;99563.56;;;8.41;100.00
10948;BME280;5526;42.070;24.752;2023-03-01T11:47:30;99556.56;;;8.23;100.00
10948;BME280;5526;42.070;24.752;2023-03-01T11:50:16;99552.72;;;8.26;100.00
10948;BME280;5526;42.070;24.752;2023-03-01T11:52:55;99558.25;;;8.47;100.00
10948;BME280;5526;42.070;24.752;2023-03-01T11:55:35;99554.59;;;8.60;100.00
10948;BME280;5526;42.070;24.752;2023-03-01T11:58:17;99556.72;;;8.40;100.00
10948;BME280;5526;42.070;24.752;2023-03-01T12:01:09;99552.19;;;8.35;100.00
10948;BME280;5526;42.070;24.752;2023-03-01T12:06:50;99552.97;;;8.36;100.00
10948;BME280;5526;42.070;24.752;2023-03-01T12:09:37;99550.53;;;8.23;100.00
10948;BME280;5526;42.070;24.752;2023-03-01T12:12:18;99550.00;;;8.32;100.00
10948;BME280;5526;42.070;24.752;2023-03-01T12:15:19;99544.75;;;8.32;100.00
10948;BME280;5526;42.070;24.752;2023-03-01T12:18:14;99557.31;;;8.42;100.00
10948;BME280;5526;42.070;24.752;2023-03-01T12:20:51;99540.53;;;8.54;100.00
10948;BME280;5526;42.070;24.752;2023-03-01T12:26:29;99539.41;;;8.50;100.00
10948;BME280;5526;42.070;24.752;2023-03-01T12:29:24;99536.56;;;8.52;100.00
10948;BME280;5526;42.070;24.752;2023-03-01T12:32:11;99518.09;;;8.47;100.00
10948;BME280;5526;42.070;24.752;2023-03-01T12:35:00;99529.16;;;8.60;100.00
10948;BME280;5526;42.070;24.752;2023-03-01T12:37:39;99529.97;;;8.61;100.00
10948;BME280;5526;42.070;24.752;2023-03-01T12:43:35;99525.16;;;8.46;100.00
10948;BME280;5526;42.070;24.752;2023-03-01T12:46:19;99525.16;;;8.46;100.00
10948;BME280;5526;42.070;24.752;2023-03-01T12:48:54;99520.81;;;8.52;100.00
10948;BME280;5526;42.070;24.752;2023-03-01T12:51:26;99507.44;;;8.30;100.00
10948;BME280;5526;42.070;24.752;2023-03-01T12:53:59;99524.22;;;8.41;100.00
10948;BME280;5526;42.070;24.752;2023-03-01T12:56:30;99512.63;;;8.48;100.00
10948;BME280;5526;42.070;24.752;2023-03-01T12:59:09;99509.63;;;8.45;100.00
10948;BME280;5526;42.070;24.752;2023-03-01T13:01:42;99523.22;;;8.53;100.00
10948;BME280;5526;42.070;24.752;2023-03-01T13:04:27;99535.19;;;8.38;100.00
10948;BME280;5526;42.070;24.752;2023-03-01T13:07:05;99529.25;;;8.42;100.00
10948;BME280;5526;42.070;24.752;2023-03-01T13:09:41;99522.63;;;8.40;100.00
10948;BME280;5526;42.070;24.752;2023-03-01T13:12:50;99520.72;;;8.47;100.00
10948;BME280;5526;42.070;24.752;2023-03-01T13:15:33;99516.59;;;8.51;100.00
10948;BME280;5526;42.070;24.752;2023-03-01T13:18:03;99521.84;;;8.62;100.00
10948;BME280;5526;42.070;24.752;2023-03-01T13:20:45;99523.00;;;8.66;100.00
10948;BME280;5526;42.070;24.752;2023-03-01T13:23:24;99524.94;;;8.71;100.00
10948;BME280;5526;42.070;24.752;2023-03-01T13:26:13;99522.66;;;8.74;100.00
10948;BME280;5526;42.070;24.752;2023-03-01T13:28:51;99525.84;;;8.76;100.00